createdAt,value
2019-03-05T00:05:09.177Z,18.43
2019-03-05T00:10:33.123Z,18.23
2019-03-05T00:15:57.557Z,17.10
2019-03-05T00:21:22.278Z,23.47
2019-03-05T00:26:46.868Z,16.50
2019-03-05T00:32:11.505Z,12.80
2019-03-05T00:37:47.693Z,12.13
2019-03-05T00:43:39.648Z,15.27
2019-03-05T00:49:40.641Z,10.90
2019-03-05T00:55:31.080Z,12.13
2019-03-05T01:01:36.455Z,13.63
2019-03-05T01:07:00.254Z,20.13
2019-03-05T01:12:25.168Z,11.00
2019-03-05T01:17:49.311Z,13.53
2019-03-05T01:23:14.623Z,11.37
2019-03-05T01:28:38.673Z,10.30
2019-03-05T01:34:16.395Z,12.43
2019-03-05T01:39:57.776Z,12.10
2019-03-05T01:45:22.538Z,16.57
2019-03-05T01:50:48.232Z,13.20
2019-03-05T01:56:12.043Z,12.77
2019-03-05T02:01:36.527Z,12.17
2019-03-05T02:07:01.335Z,11.07
2019-03-05T02:12:25.104Z,8.50
2019-03-05T02:17:48.863Z,11.63
2019-03-05T02:23:38.841Z,13.73
2019-03-05T02:29:47.105Z,11.37
2019-03-05T02:35:31.130Z,11.13
2019-03-05T02:41:41.481Z,12.63
2019-03-05T02:47:14.864Z,9.93
2019-03-05T02:53:17.739Z,17.13
2019-03-05T02:58:41.639Z,10.53
2019-03-05T03:04:10.394Z,9.40
2019-03-05T03:10:12.962Z,12.60
2019-03-05T03:15:37.100Z,10.03
2019-03-05T03:21:01.409Z,11.23
2019-03-05T03:26:26.127Z,10.97
2019-03-05T03:31:50.454Z,5.83
2019-03-05T03:37:15.068Z,10.27
2019-03-05T03:42:39.534Z,11.53
2019-03-05T03:48:03.412Z,14.90
2019-03-05T03:53:28.172Z,11.90
2019-03-05T03:58:51.933Z,7.23
2019-03-05T04:04:16.999Z,8.67
2019-03-05T04:09:40.812Z,7.93
2019-03-05T04:15:05.264Z,3.27
2019-03-05T04:20:34.485Z,10.33
2019-03-05T04:25:58.651Z,10.07
2019-03-05T04:31:23.382Z,9.23
2019-03-05T04:36:47.968Z,8.13
2019-03-05T04:42:12.371Z,9.00
2019-03-05T04:47:37.518Z,10.00
2019-03-05T04:53:02.223Z,7.37
2019-03-05T04:58:26.059Z,9.63
2019-03-05T05:03:51.152Z,7.83
2019-03-05T05:09:15.673Z,8.20
2019-03-05T05:14:40.301Z,8.67
2019-03-05T05:20:05.474Z,10.23
2019-03-05T05:25:29.221Z,8.20
2019-03-05T05:30:53.884Z,10.30
2019-03-05T05:36:18.585Z,10.23
2019-03-05T05:41:43.460Z,10.27
2019-03-05T05:47:08.175Z,11.63
2019-03-05T05:52:32.906Z,10.80
2019-03-05T05:57:57.853Z,14.80
2019-03-05T06:03:21.617Z,13.07
2019-03-05T06:08:45.316Z,12.23
2019-03-05T06:14:08.852Z,11.70
2019-03-05T06:19:36.256Z,11.47
2019-03-05T06:25:02.080Z,9.50
2019-03-05T06:30:26.716Z,17.10
2019-03-05T06:35:51.202Z,15.43
2019-03-05T06:41:15.562Z,14.43
2019-03-05T06:46:40.333Z,17.03
2019-03-05T06:52:05.086Z,16.47
2019-03-05T06:57:29.429Z,16.13
2019-03-05T07:02:54.138Z,14.70
2019-03-05T07:08:18.896Z,12.27
2019-03-05T07:13:42.678Z,14.33
2019-03-05T07:19:13.980Z,13.60
2019-03-05T07:24:46.508Z,11.77
2019-03-05T07:30:21.170Z,12.13
2019-03-05T07:35:45.753Z,10.43
2019-03-05T07:41:10.646Z,8.67
2019-03-05T07:46:35.126Z,10.77
2019-03-05T07:51:59.880Z,15.90
2019-03-05T07:57:23.739Z,13.07
2019-03-05T08:02:48.278Z,16.17
2019-03-05T08:08:49.299Z,9.80
2019-03-05T08:14:47.004Z,12.20
2019-03-05T08:20:11.254Z,10.77
2019-03-05T08:25:35.684Z,11.80
2019-03-05T08:31:00.465Z,7.53
2019-03-05T08:36:24.218Z,11.80
2019-03-05T08:41:47.812Z,13.90
2019-03-05T08:47:12.258Z,14.43
2019-03-05T08:52:36.758Z,13.20
2019-03-05T08:58:01.177Z,11.40
2019-03-05T09:03:25.209Z,12.23
2019-03-05T09:08:49.708Z,9.27
2019-03-05T09:14:13.344Z,10.30
2019-03-05T09:19:37.832Z,12.60
2019-03-05T09:25:02.615Z,8.27
2019-03-05T09:30:27.280Z,7.57
2019-03-05T09:35:52.015Z,6.70
2019-03-05T09:41:16.408Z,7.90
2019-03-05T09:46:41.144Z,10.23
2019-03-05T09:52:05.904Z,7.23
2019-03-05T09:57:30.641Z,9.10
2019-03-05T10:02:54.877Z,8.10
2019-03-05T10:08:19.387Z,14.47
2019-03-05T10:13:43.926Z,10.17
2019-03-05T10:19:11.812Z,7.33
2019-03-05T10:24:36.121Z,10.43
2019-03-05T10:29:59.988Z,9.60
2019-03-05T10:35:26.167Z,8.70
2019-03-05T10:40:50.753Z,8.67
2019-03-05T10:46:15.280Z,8.93
2019-03-05T10:51:39.095Z,12.37
2019-03-05T10:57:03.725Z,9.13
2019-03-05T11:02:28.879Z,10.97
2019-03-05T11:07:53.641Z,8.20
2019-03-05T11:13:17.786Z,11.67
2019-03-05T11:18:41.738Z,9.60
2019-03-05T11:24:06.592Z,8.47
2019-03-05T11:29:31.091Z,10.73
2019-03-05T11:34:56.096Z,10.33
2019-03-05T11:40:21.511Z,8.10
2019-03-05T11:45:46.705Z,10.10
2019-03-05T11:51:11.208Z,11.13
2019-03-05T11:56:35.624Z,9.87
2019-03-05T12:02:00.392Z,14.37
2019-03-05T12:07:24.236Z,6.80
2019-03-05T12:12:48.728Z,9.57
2019-03-05T12:18:13.035Z,7.87
2019-03-05T12:23:37.975Z,8.83
2019-03-05T12:29:03.202Z,8.20
2019-03-05T12:34:27.857Z,11.90
2019-03-05T12:39:52.420Z,9.67
2019-03-05T12:45:17.619Z,19.03
2019-03-05T12:50:41.679Z,9.17
2019-03-05T12:56:05.586Z,10.90
2019-03-05T13:01:29.943Z,10.03
2019-03-05T13:06:54.399Z,9.97
2019-03-05T13:12:19.109Z,11.37
2019-03-05T13:17:47.029Z,6.27
2019-03-05T13:23:10.595Z,6.30
2019-03-05T13:28:36.753Z,11.40
2019-03-05T13:34:01.289Z,8.57
2019-03-05T13:39:26.240Z,8.63
2019-03-05T13:44:50.176Z,11.20
2019-03-05T13:50:44.011Z,9.17
2019-03-05T13:56:31.009Z,9.43
2019-03-05T14:01:55.159Z,12.57
2019-03-05T14:08:02.976Z,9.07
2019-03-05T14:13:26.924Z,6.80
2019-03-05T14:18:50.793Z,9.00
2019-03-05T14:24:15.439Z,9.50
2019-03-05T14:29:39.528Z,15.13
2019-03-05T14:35:09.071Z,11.27
2019-03-05T14:40:34.167Z,9.20
2019-03-05T14:45:59.075Z,6.73
2019-03-05T14:51:22.666Z,9.33
2019-03-05T14:56:46.258Z,7.30
2019-03-05T15:02:11.142Z,6.30
2019-03-05T15:07:34.848Z,7.27
2019-03-05T15:12:58.753Z,6.97
2019-03-05T15:18:22.718Z,6.20
2019-03-05T15:23:47.455Z,7.87
2019-03-05T15:29:12.023Z,7.93
2019-03-05T15:34:35.663Z,7.77
2019-03-05T15:40:00.377Z,8.50
2019-03-05T15:45:24.201Z,7.30
2019-03-05T15:50:48.786Z,9.27
2019-03-05T15:56:13.057Z,8.70
2019-03-05T16:01:37.811Z,8.33
2019-03-05T16:07:02.023Z,11.57
2019-03-05T16:12:25.855Z,8.97
2019-03-05T16:17:49.781Z,7.50
2019-03-05T16:23:13.615Z,8.60
2019-03-05T16:28:39.338Z,8.70
2019-03-05T16:34:29.897Z,11.67
2019-03-05T16:40:05.247Z,7.10
2019-03-05T16:45:42.253Z,9.97
2019-03-05T16:51:11.530Z,7.37
2019-03-05T16:56:54.019Z,8.17
2019-03-05T17:02:42.525Z,13.07
2019-03-05T17:08:29.218Z,10.17
2019-03-05T17:13:53.566Z,7.50
2019-03-05T17:19:17.651Z,8.90
2019-03-05T17:24:42.309Z,7.10
2019-03-05T17:30:10.857Z,10.63
2019-03-05T17:35:35.461Z,9.90
2019-03-05T17:41:00.057Z,13.50
2019-03-05T17:46:24.858Z,10.60
2019-03-05T17:51:49.867Z,10.00
2019-03-05T17:57:14.806Z,13.07
2019-03-05T18:02:39.054Z,10.80
2019-03-05T18:08:03.005Z,11.20
2019-03-05T18:13:27.267Z,11.23
2019-03-05T18:18:51.035Z,9.90
2019-03-05T18:24:14.731Z,20.47
2019-03-05T18:29:39.315Z,25.53
2019-03-05T18:35:04.239Z,22.77
2019-03-05T18:40:30.381Z,15.53
2019-03-05T18:45:55.188Z,12.10
2019-03-05T18:51:19.847Z,13.83
2019-03-05T18:56:43.728Z,13.30
2019-03-05T19:02:07.921Z,18.87
2019-03-05T19:07:32.551Z,14.43
2019-03-05T19:12:56.894Z,15.93
2019-03-05T19:18:20.629Z,12.30
2019-03-05T19:23:45.112Z,12.87
2019-03-05T19:29:09.814Z,16.87
2019-03-05T19:34:34.421Z,14.03
2019-03-05T19:39:58.749Z,14.80
2019-03-05T19:45:24.075Z,15.40
2019-03-05T19:50:49.080Z,12.77
2019-03-05T19:56:13.546Z,12.63
2019-03-05T20:01:41.000Z,14.73
2019-03-05T20:07:05.061Z,12.50
2019-03-05T20:12:31.265Z,19.63
2019-03-05T20:17:58.979Z,14.63
2019-03-05T20:23:20.699Z,17.13
2019-03-05T20:28:44.482Z,15.43
2019-03-05T20:34:09.004Z,14.87
2019-03-05T20:39:34.556Z,12.67
2019-03-05T20:44:58.283Z,16.30
2019-03-05T20:50:22.389Z,13.90
2019-03-05T20:55:47.735Z,12.83
2019-03-05T21:01:13.148Z,14.03
2019-03-05T21:06:36.762Z,14.00
2019-03-05T21:12:00.747Z,15.50
2019-03-05T21:17:25.662Z,13.37
2019-03-05T21:22:50.988Z,14.63
2019-03-05T21:28:14.844Z,13.97
2019-03-05T21:33:39.530Z,13.63
2019-03-05T21:39:05.566Z,13.80
2019-03-05T21:44:30.246Z,16.60
2019-03-05T21:49:53.954Z,17.20
2019-03-05T21:55:18.381Z,16.07
2019-03-05T22:00:42.746Z,20.47
2019-03-05T22:06:08.671Z,17.50
2019-03-05T22:11:32.585Z,21.90
2019-03-05T22:16:56.292Z,14.80
2019-03-05T22:22:21.125Z,21.07
2019-03-05T22:27:46.207Z,15.57
2019-03-05T22:33:09.889Z,17.83
2019-03-05T22:38:34.547Z,19.20
2019-03-05T22:43:59.519Z,18.60
2019-03-05T22:49:23.648Z,21.57
2019-03-05T22:54:50.110Z,22.63
2019-03-05T23:00:50.078Z,18.73
2019-03-05T23:06:16.449Z,17.17
2019-03-05T23:11:41.204Z,19.87
2019-03-05T23:17:06.632Z,19.00
2019-03-05T23:22:30.562Z,19.40
2019-03-05T23:27:55.201Z,21.80
2019-03-05T23:33:19.958Z,19.43
2019-03-05T23:38:44.648Z,17.57
2019-03-05T23:44:08.508Z,19.23
2019-03-05T23:49:33.274Z,22.90
2019-03-05T23:54:57.081Z,18.60
